Time;durP1;ratioP1;P1;durP2;ratioP2;P2;SDS_P1;SDS_P2;PMS_P1;PMS_P2;Temp;Humidity;BMP_temperature;BMP_pressure;BME280_temperature;BME280_humidity;BME280_pressure;Samples;Min_cycle;Max_cycle;Signal;HPM_P1;HPM_P2
2024/01/09 00:01:54;;;;;;;;;;;;;;;17.68;58.85;101623.13;7389577;19;1974;-42
2024/01/09 00:04:23;;;;;;;;;;;;;;;17.57;58.85;101622.16;7391742;19;1325;-43
2024/01/09 00:06:51;;;;;;;;;;;;;;;17.47;58.87;101632.63;7391153;19;1845;-41
2024/01/09 00:09:22;;;;;;;;;;;;;;;17.45;58.82;101640.75;7393002;19;1806;-42
2024/01/09 00:11:50;;;;;;;;;;;;;;;17.36;59.37;101640.50;7397775;19;1809;-41
2024/01/09 00:14:18;;;;;;;;;;;;;;;17.34;59.19;101632.59;7402329;19;1837;-41
2024/01/09 00:16:47;;;;;;;;;;;;;;;17.63;59.14;101641.31;7401378;19;1561;-46
2024/01/09 00:19:16;;;;;;;;;;;;;;;17.88;58.50;101664.56;7400543;19;1754;-41
2024/01/09 00:21:46;;;;;;;;;;;;;;;17.88;58.17;101642.31;7399370;19;1550;-41
2024/01/09 00:24:14;;;;;;;;;;;;;;;17.72;57.94;101647.84;7396711;19;1439;-41
2024/01/09 00:26:45;;;;;;;;;;;;;;;17.57;58.12;101664.97;7396903;19;1850;-42
2024/01/09 00:29:14;;;;;;;;;;;;;;;17.49;58.46;101662.81;7399035;19;1873;-43
2024/01/09 00:31:44;;;;;;;;;;;;;;;17.38;58.40;101639.44;7398461;19;1758;-41
2024/01/09 00:34:09;;;;;;;;;;;;;;;17.33;58.54;101651.41;7398793;19;1622;-41
2024/01/09 00:36:43;;;;;;;;;;;;;;;17.25;58.98;101649.28;7397598;19;1551;-42
2024/01/09 00:39:12;;;;;;;;;;;;;;;17.37;58.84;101661.81;7395828;19;1790;-41
2024/01/09 00:41:40;;;;;;;;;;;;;;;17.74;58.12;101661.97;7396492;19;1566;-41
2024/01/09 00:44:11;;;;;;;;;;;;;;;17.84;57.85;101667.56;7398057;19;1470;-41
2024/01/09 00:46:39;;;;;;;;;;;;;;;17.76;57.21;101665.38;7380879;19;1883;-41
2024/01/09 00:49:08;;;;;;;;;;;;;;;17.61;57.84;101678.00;7397838;19;1328;-42
2024/01/09 00:51:36;;;;;;;;;;;;;;;17.42;57.75;101673.03;7397797;19;1582;-41
2024/01/09 00:54:05;;;;;;;;;;;;;;;17.35;57.92;101673.53;7398142;19;1702;-41
2024/01/09 00:56:33;;;;;;;;;;;;;;;17.27;58.29;101690.13;7397214;19;1039;-41
2024/01/09 00:59:02;;;;;;;;;;;;;;;17.21;58.52;101682.47;7397504;19;1459;-42
2024/01/09 01:01:33;;;;;;;;;;;;;;;17.42;58.35;101686.41;7397124;19;1858;-41
2024/01/09 01:04:01;;;;;;;;;;;;;;;17.70;57.61;101692.56;7395962;19;1585;-41
2024/01/09 01:06:29;;;;;;;;;;;;;;;17.77;57.18;101693.88;7396259;19;1842;-41
2024/01/09 01:08:58;;;;;;;;;;;;;;;17.66;56.74;101689.25;7397056;19;1641;-41
2024/01/09 01:11:26;;;;;;;;;;;;;;;17.48;56.85;101696.69;7396112;19;1753;-42
2024/01/09 01:13:54;;;;;;;;;;;;;;;17.38;57.66;101697.41;7396646;19;1489;-41
2024/01/09 01:16:22;;;;;;;;;;;;;;;17.28;57.67;101692.66;7393340;19;1288;-41
2024/01/09 01:18:53;;;;;;;;;;;;;;;17.23;57.61;101707.28;7394572;19;1537;-41
2024/01/09 01:21:22;;;;;;;;;;;;;;;17.19;58.16;101703.09;7396416;19;1576;-41
2024/01/09 01:23:50;;;;;;;;;;;;;;;17.51;57.58;101692.97;7396804;19;1507;-42
2024/01/09 01:26:18;;;;;;;;;;;;;;;17.77;57.14;101688.53;7393219;19;1845;-43
2024/01/09 01:28:47;;;;;;;;;;;;;;;17.67;56.76;101698.16;7397096;19;1416;-41
2024/01/09 01:31:15;;;;;;;;;;;;;;;17.53;57.20;101700.88;7395734;19;1401;-41
2024/01/09 01:33:44;;;;;;;;;;;;;;;17.37;57.02;101703.72;7396123;19;1585;-41
2024/01/09 01:36:18;;;;;;;;;;;;;;;17.26;57.32;101717.78;7395918;19;1638;-41
2024/01/09 01:38:46;;;;;;;;;;;;;;;17.19;57.53;101714.69;7397109;19;1561;-41
2024/01/09 01:41:15;;;;;;;;;;;;;;;17.25;57.88;101702.72;7396082;19;1751;-41
2024/01/09 01:43:43;;;;;;;;;;;;;;;17.59;57.25;101700.47;7397159;19;1562;-41
2024/01/09 01:46:12;;;;;;;;;;;;;;;17.75;56.26;101701.16;7395974;19;1844;-41
2024/01/09 01:48:40;;;;;;;;;;;;;;;17.67;56.36;101703.50;7382030;19;1787;-42
2024/01/09 01:51:08;;;;;;;;;;;;;;;17.50;56.34;101696.59;7395533;19;1856;-41
2024/01/09 01:53:39;;;;;;;;;;;;;;;17.34;56.81;101726.16;7395752;19;1934;-41
2024/01/09 01:56:08;;;;;;;;;;;;;;;17.23;57.02;101700.16;7395363;19;1848;-41
2024/01/09 01:58:37;;;;;;;;;;;;;;;17.24;57.34;101717.03;7396438;19;1785;-41
2024/01/09 02:01:05;;;;;;;;;;;;;;;17.20;56.91;101720.88;7395615;19;1843;-41
2024/01/09 02:03:34;;;;;;;;;;;;;;;17.38;57.19;101735.69;7396185;19;1792;-41
2024/01/09 02:06:03;;;;;;;;;;;;;;;17.65;56.71;101722.31;7394206;19;1612;-41
2024/01/09 02:08:31;;;;;;;;;;;;;;;17.68;56.26;101722.09;7392937;19;1888;-41
2024/01/09 02:11:02;;;;;;;;;;;;;;;17.54;56.14;101710.63;7393424;19;1535;-41
2024/01/09 02:13:30;;;;;;;;;;;;;;;17.43;56.37;101728.25;7395009;19;1815;-41
2024/01/09 02:15:59;;;;;;;;;;;;;;;17.29;56.62;101731.81;7395651;19;1038;-41
2024/01/09 02:18:27;;;;;;;;;;;;;;;17.22;57.03;101724.31;7394950;19;1887;-41
2024/01/09 02:20:56;;;;;;;;;;;;;;;17.15;56.81;101734.53;7392783;19;1244;-41
2024/01/09 02:23:24;;;;;;;;;;;;;;;17.26;57.13;101724.00;7392928;19;1891;-41
2024/01/09 02:25:53;;;;;;;;;;;;;;;17.54;56.57;101740.03;7393985;19;1476;-41
2024/01/09 02:28:27;;;;;;;;;;;;;;;17.64;56.17;101725.09;7391727;19;1853;-41
2024/01/09 02:30:58;;;;;;;;;;;;;;;17.51;55.84;101730.41;7394595;19;1210;-42
2024/01/09 02:33:27;;;;;;;;;;;;;;;17.38;56.03;101733.03;7393159;19;1633;-41
2024/01/09 02:35:55;;;;;;;;;;;;;;;17.26;56.25;101731.16;7393128;19;1782;-42
2024/01/09 02:38:23;;;;;;;;;;;;;;;17.18;56.34;101752.19;7394103;19;1578;-42
2024/01/09 02:40:52;;;;;;;;;;;;;;;17.08;56.76;101726.03;7394601;19;1451;-40
2024/01/09 02:43:20;;;;;;;;;;;;;;;17.00;57.27;101744.41;7390310;19;1453;-42
2024/01/09 02:45:48;;;;;;;;;;;;;;;17.02;56.99;101753.16;7394606;19;1745;-41
2024/01/09 02:48:19;;;;;;;;;;;;;;;17.02;57.14;101752.31;7377039;19;1858;-42
2024/01/09 02:50:47;;;;;;;;;;;;;;;17.28;56.69;101750.63;7393530;19;1475;-41
2024/01/09 02:53:16;;;;;;;;;;;;;;;17.62;55.90;101746.56;7394170;19;1951;-41
2024/01/09 02:55:44;;;;;;;;;;;;;;;17.71;55.25;101753.16;7393283;19;1803;-41
2024/01/09 02:58:13;;;;;;;;;;;;;;;17.46;55.34;101757.44;7392752;19;1457;-41
2024/01/09 03:00:41;;;;;;;;;;;;;;;17.27;56.36;101755.13;7392731;19;1328;-41
2024/01/09 03:03:09;;;;;;;;;;;;;;;17.13;56.09;101759.63;7392448;19;1496;-41
2024/01/09 03:05:40;;;;;;;;;;;;;;;16.99;56.96;101760.53;7392340;19;1128;-41
2024/01/09 03:08:08;;;;;;;;;;;;;;;17.15;56.75;101761.28;7391107;19;1847;-41
2024/01/09 03:10:37;;;;;;;;;;;;;;;17.53;56.00;101760.59;7389343;19;1511;-41
2024/01/09 03:13:05;;;;;;;;;;;;;;;17.64;55.54;101763.38;7394139;19;1131;-42
2024/01/09 03:15:34;;;;;;;;;;;;;;;17.47;55.12;101764.50;7390489;19;1910;-41
2024/01/09 03:18:03;;;;;;;;;;;;;;;17.33;55.64;101764.56;7392163;19;1718;-41
2024/01/09 03:20:31;;;;;;;;;;;;;;;17.20;55.74;101753.78;7392805;19;1102;-41
2024/01/09 03:23:02;;;;;;;;;;;;;;;17.07;56.19;101771.59;7392581;19;1605;-41
2024/01/09 03:25:31;;;;;;;;;;;;;;;17.05;56.44;101773.50;7392231;19;1796;-41
2024/01/09 03:27:59;;;;;;;;;;;;;;;17.33;56.02;101777.06;7391085;19;1846;-41
2024/01/09 03:30:29;;;;;;;;;;;;;;;17.57;55.53;101785.31;7391408;19;1729;-41
2024/01/09 03:32:57;;;;;;;;;;;;;;;17.61;55.02;101781.47;7392452;19;1551;-41
2024/01/09 03:35:26;;;;;;;;;;;;;;;17.43;54.93;101775.53;7392650;19;1831;-41
2024/01/09 03:37:54;;;;;;;;;;;;;;;17.25;55.33;101794.47;7391713;19;1649;-41
2024/01/09 03:40:25;;;;;;;;;;;;;;;17.17;55.67;101804.81;7392810;19;1114;-41
2024/01/09 03:42:54;;;;;;;;;;;;;;;17.03;56.46;101797.66;7392044;19;1503;-42
2024/01/09 03:45:23;;;;;;;;;;;;;;;17.07;56.34;101793.84;7388489;19;1473;-41
2024/01/09 03:47:52;;;;;;;;;;;;;;;17.44;55.61;101807.47;7375578;19;1856;-41
2024/01/09 03:50:20;;;;;;;;;;;;;;;17.67;54.94;101805.13;7391370;19;1585;-41
2024/01/09 03:52:49;;;;;;;;;;;;;;;17.51;55.04;101821.34;7391107;19;1665;-41
2024/01/09 03:55:17;;;;;;;;;;;;;;;17.26;56.13;101822.91;7390828;19;1538;-41
2024/01/09 03:57:48;;;;;;;;;;;;;;;17.14;56.36;101828.19;7391483;19;1814;-41
2024/01/09 04:00:17;;;;;;;;;;;;;;;16.96;56.98;101831.06;7391213;19;1574;-41
2024/01/09 04:02:46;;;;;;;;;;;;;;;16.98;56.68;101823.81;7392039;19;1190;-41
2024/01/09 04:05:14;;;;;;;;;;;;;;;17.35;56.04;101825.94;7391196;19;1702;-41
2024/01/09 04:07:42;;;;;;;;;;;;;;;17.80;55.20;101831.94;7389798;19;1852;-41
2024/01/09 04:10:11;;;;;;;;;;;;;;;18.07;54.70;101839.97;7392397;19;1033;-42
2024/01/09 04:12:39;;;;;;;;;;;;;;;18.07;54.97;101842.66;7390616;19;1820;-41
2024/01/09 04:15:11;;;;;;;;;;;;;;;17.71;55.51;101854.81;7391841;19;1722;-41
2024/01/09 04:17:39;;;;;;;;;;;;;;;17.44;56.45;101850.28;7392072;19;1120;-41
2024/01/09 04:20:09;;;;;;;;;;;;;;;17.49;56.29;101832.13;7392306;19;1117;-42
2024/01/09 04:22:37;;;;;;;;;;;;;;;17.82;55.38;101835.34;7389382;19;1771;-41
2024/01/09 04:25:05;;;;;;;;;;;;;;;18.11;54.94;101846.84;7390540;19;1435;-41
2024/01/09 04:27:34;;;;;;;;;;;;;;;18.17;54.84;101835.72;7389063;19;1871;-41
2024/01/09 04:30:02;;;;;;;;;;;;;;;18.15;54.85;101851.00;7391043;19;1555;-42
2024/01/09 04:32:33;;;;;;;;;;;;;;;17.80;55.72;101842.63;7390760;19;1809;-41
2024/01/09 04:35:01;;;;;;;;;;;;;;;17.46;56.58;101848.34;7387479;19;1802;-42
2024/01/09 04:37:30;;;;;;;;;;;;;;;17.46;56.55;101856.38;7391016;19;1774;-41
2024/01/09 04:39:58;;;;;;;;;;;;;;;17.67;56.38;101864.84;7391568;19;1818;-41
2024/01/09 04:42:27;;;;;;;;;;;;;;;17.87;55.80;101871.59;7391544;19;1736;-41
2024/01/09 04:44:55;;;;;;;;;;;;;;;18.03;55.55;101875.94;7390882;19;1821;-41
2024/01/09 04:47:23;;;;;;;;;;;;;;;18.14;55.28;101889.44;7374956;19;1875;-40
2024/01/09 04:49:54;;;;;;;;;;;;;;;18.28;55.05;101896.53;7389703;19;1893;-41
2024/01/09 04:52:23;;;;;;;;;;;;;;;18.43;54.71;101894.66;7387564;19;1610;-41
2024/01/09 04:54:51;;;;;;;;;;;;;;;18.40;55.16;101902.91;7390612;19;2005;-42
2024/01/09 04:57:20;;;;;;;;;;;;;;;18.39;55.20;101919.94;7393190;19;1570;-41
2024/01/09 04:59:48;;;;;;;;;;;;;;;18.42;55.06;101917.03;7396563;19;1881;-41
2024/01/09 05:02:16;;;;;;;;;;;;;;;18.56;54.96;101919.66;7398336;19;1207;-41
2024/01/09 05:04:45;;;;;;;;;;;;;;;18.72;54.54;101926.63;7398270;19;1686;-45
2024/01/09 05:07:16;;;;;;;;;;;;;;;18.73;54.47;101917.66;7397947;19;1730;-41
2024/01/09 05:09:44;;;;;;;;;;;;;;;18.77;54.40;101911.97;7394934;19;1934;-43
2024/01/09 05:12:13;;;;;;;;;;;;;;;18.46;54.97;101923.91;7396426;19;1811;-41
2024/01/09 05:14:41;;;;;;;;;;;;;;;18.00;56.11;101940.34;7396717;19;1156;-41
2024/01/09 05:17:09;;;;;;;;;;;;;;;17.75;56.63;101957.97;7395678;19;1720;-42
2024/01/09 05:19:38;;;;;;;;;;;;;;;17.85;56.38;101969.00;7395114;19;1389;-41
2024/01/09 05:22:06;;;;;;;;;;;;;;;18.15;55.82;101997.41;7395934;19;1767;-41
2024/01/09 05:24:37;;;;;;;;;;;;;;;18.40;55.10;102000.19;7393287;19;1194;-40
2024/01/09 05:27:06;;;;;;;;;;;;;;;18.36;56.07;102012.03;7389886;19;1413;-41
2024/01/09 05:29:34;;;;;;;;;;;;;;;18.28;56.74;102009.91;7392303;19;1877;-41
2024/01/09 05:32:02;;;;;;;;;;;;;;;18.24;57.11;102018.19;7393384;19;1267;-41
2024/01/09 05:34:30;;;;;;;;;;;;;;;18.20;57.12;102008.66;7394073;19;1821;-42
2024/01/09 05:36:59;;;;;;;;;;;;;;;18.27;57.13;102015.34;7259075;19;14409;-41
2024/01/09 05:39:27;;;;;;;;;;;;;;;18.37;57.25;101988.81;7392899;19;1644;-42
2024/01/09 05:41:58;;;;;;;;;;;;;;;18.40;57.10;102008.22;7394739;19;1524;-42
2024/01/09 05:44:27;;;;;;;;;;;;;;;18.54;56.86;102019.81;7395030;19;1447;-41
2024/01/09 05:46:55;;;;;;;;;;;;;;;18.50;57.10;102029.88;7395149;19;1537;-42
2024/01/09 05:49:23;;;;;;;;;;;;;;;18.47;57.33;102035.47;7377060;19;1862;-42
2024/01/09 05:51:52;;;;;;;;;;;;;;;18.44;57.41;102039.19;7394178;19;1610;-41
2024/01/09 05:54:20;;;;;;;;;;;;;;;18.40;57.47;102035.00;7392449;19;1537;-42
2024/01/09 05:56:48;;;;;;;;;;;;;;;18.37;57.54;102021.81;7394238;19;1567;-42
2024/01/09 05:59:19;;;;;;;;;;;;;;;18.32;57.51;102021.22;7395466;19;1209;-41
2024/01/09 06:01:48;;;;;;;;;;;;;;;18.29;57.52;102024.97;7394142;19;1842;-42
2024/01/09 06:04:16;;;;;;;;;;;;;;;18.36;57.41;102028.09;7393735;19;1444;-41
2024/01/09 06:06:44;;;;;;;;;;;;;;;18.44;57.32;102038.31;7394168;19;1341;-42
2024/01/09 06:09:13;;;;;;;;;;;;;;;18.56;56.97;102033.97;7388138;19;1853;-42
2024/01/09 06:11:41;;;;;;;;;;;;;;;18.57;56.86;102031.19;7393092;19;1523;-41
2024/01/09 06:14:09;;;;;;;;;;;;;;;18.48;57.32;102031.81;7395160;19;1034;-42
2024/01/09 06:16:40;;;;;;;;;;;;;;;18.45;57.38;102045.41;7393542;19;1850;-41
2024/01/09 06:19:09;;;;;;;;;;;;;;;18.52;57.22;102060.09;7393038;19;1318;-41
2024/01/09 06:21:37;;;;;;;;;;;;;;;18.46;57.44;102055.16;7388954;19;1667;-43
2024/01/09 06:24:06;;;;;;;;;;;;;;;18.38;57.36;102062.81;7391787;19;1510;-44
2024/01/09 06:26:34;;;;;;;;;;;;;;;18.49;56.31;102092.47;7393246;19;1847;-44
2024/01/09 06:29:05;;;;;;;;;;;;;;;18.44;55.98;102066.00;7392551;19;1867;-42
2024/01/09 06:31:33;;;;;;;;;;;;;;;18.56;55.35;102068.81;7391106;19;1851;-41
2024/01/09 06:34:04;;;;;;;;;;;;;;;18.59;55.05;102079.34;7390335;19;1497;-41
2024/01/09 06:36:32;;;;;;;;;;;;;;;18.72;54.85;102055.25;7392001;19;1739;-42
2024/01/09 06:39:01;;;;;;;;;;;;;;;18.65;55.25;102076.25;7392658;19;1711;-42
2024/01/09 06:41:30;;;;;;;;;;;;;;;18.25;55.99;102090.41;7390409;19;1844;-41
2024/01/09 06:43:59;;;;;;;;;;;;;;;17.98;56.72;102097.50;7390831;19;2430;-41
2024/01/09 06:46:27;;;;;;;;;;;;;;;17.71;57.25;102090.22;7392420;19;1839;-42
2024/01/09 06:48:55;;;;;;;;;;;;;;;18.08;56.48;102087.94;7377453;19;1893;-42
2024/01/09 06:51:28;;;;;;;;;;;;;;;18.45;55.97;102097.16;7391962;19;1292;-42
2024/01/09 06:53:57;;;;;;;;;;;;;;;18.56;56.11;102099.16;7394308;19;1033;-41
2024/01/09 06:56:25;;;;;;;;;;;;;;;18.40;56.38;102115.34;7393197;19;1559;-41
2024/01/09 06:58:53;;;;;;;;;;;;;;;17.99;57.22;102115.31;7392611;19;1826;-42
2024/01/09 07:01:22;;;;;;;;;;;;;;;17.74;57.95;102115.91;7388955;19;1375;-42
2024/01/09 07:03:50;;;;;;;;;;;;;;;17.97;57.30;102112.72;7392622;19;1540;-42
2024/01/09 07:06:18;;;;;;;;;;;;;;;18.18;56.99;102110.47;7392067;19;1774;-42
2024/01/09 07:08:49;;;;;;;;;;;;;;;18.35;57.02;102100.53;7391293;19;1853;-42
2024/01/09 07:11:18;;;;;;;;;;;;;;;18.48;56.63;102090.72;7392334;19;1710;-42
2024/01/09 07:13:46;;;;;;;;;;;;;;;18.56;56.31;102093.78;7391892;19;1204;-43
2024/01/09 07:16:14;;;;;;;;;;;;;;;18.66;55.91;102120.81;7392256;19;1325;-43
2024/01/09 07:18:42;;;;;;;;;;;;;;;18.60;56.03;102121.22;7388882;19;1485;-46
2024/01/09 07:21:11;;;;;;;;;;;;;;;18.53;55.87;102120.78;7391589;19;1195;-43
2024/01/09 07:23:40;;;;;;;;;;;;;;;18.47;55.91;102110.47;7390356;19;1804;-43
2024/01/09 07:26:10;;;;;;;;;;;;;;;18.47;55.92;102127.38;7390133;19;1264;-43
2024/01/09 07:28:39;;;;;;;;;;;;;;;18.46;55.64;102117.63;7390262;19;1859;-45
2024/01/09 07:31:07;;;;;;;;;;;;;;;18.56;55.55;102107.19;7391379;19;1213;-44
2024/01/09 07:33:35;;;;;;;;;;;;;;;18.58;55.27;102113.31;7389833;19;1633;-44
2024/01/09 07:36:04;;;;;;;;;;;;;;;18.70;54.92;102135.72;7390220;19;1269;-44
2024/01/09 07:38:32;;;;;;;;;;;;;;;18.83;54.98;102159.97;7390284;19;1514;-43
2024/01/09 07:41:00;;;;;;;;;;;;;;;18.82;55.20;102153.75;7391588;19;1634;-44
2024/01/09 07:43:31;;;;;;;;;;;;;;;18.66;55.34;102159.22;7391165;19;1629;-44
2024/01/09 07:46:00;;;;;;;;;;;;;;;18.49;55.85;102162.09;7391643;19;1066;-45
2024/01/09 07:48:28;;;;;;;;;;;;;;;18.48;55.97;102177.31;7376367;19;1877;-44
2024/01/09 07:50:57;;;;;;;;;;;;;;;18.47;56.05;102185.47;7390890;19;1842;-43
2024/01/09 07:53:26;;;;;;;;;;;;;;;18.38;56.11;102194.06;7389501;19;1213;-44
2024/01/09 07:55:54;;;;;;;;;;;;;;;18.37;56.21;102178.97;7389594;19;1489;-44
2024/01/09 07:58:22;;;;;;;;;;;;;;;18.40;55.97;102181.44;7390585;19;1619;-44
2024/01/09 08:00:53;;;;;;;;;;;;;;;18.53;55.72;102200.28;7388986;19;1212;-41
2024/01/09 08:03:22;;;;;;;;;;;;;;;18.64;55.47;102197.75;7385916;19;1320;-41
2024/01/09 08:05:50;;;;;;;;;;;;;;;18.66;55.42;102207.44;7385931;19;1829;-41
2024/01/09 08:08:18;;;;;;;;;;;;;;;18.71;55.31;102198.25;7389044;19;1877;-41
2024/01/09 08:10:47;;;;;;;;;;;;;;;18.72;55.04;102232.09;7390669;19;1197;-41
2024/01/09 08:13:15;;;;;;;;;;;;;;;18.75;55.38;102218.53;7390154;19;1054;-41
2024/01/09 08:15:43;;;;;;;;;;;;;;;18.53;55.73;102211.84;7389371;19;1238;-41
2024/01/09 08:18:14;;;;;;;;;;;;;;;18.51;56.11;102229.84;7389361;19;1470;-41
2024/01/09 08:20:45;;;;;;;;;;;;;;;18.48;56.14;102208.59;7389982;19;1640;-41
2024/01/09 08:23:13;;;;;;;;;;;;;;;18.46;56.28;102232.81;7390974;19;1017;-41
2024/01/09 08:25:42;;;;;;;;;;;;;;;18.49;56.08;102255.88;7388174;19;1558;-41
2024/01/09 08:28:16;;;;;;;;;;;;;;;18.41;55.90;102272.41;7390061;19;1829;-41
2024/01/09 08:30:44;;;;;;;;;;;;;;;18.44;56.13;102249.91;7387031;19;2264;-42
2024/01/09 08:33:15;;;;;;;;;;;;;;;18.39;56.04;102255.56;7394684;19;1387;-41
2024/01/09 08:35:44;;;;;;;;;;;;;;;18.45;55.93;102247.16;7395053;19;1513;-41
2024/01/09 08:38:12;;;;;;;;;;;;;;;18.51;55.92;102264.66;7398018;19;1740;-42
2024/01/09 08:40:40;;;;;;;;;;;;;;;18.66;55.55;102271.75;7397323;19;1051;-41
2024/01/09 08:43:09;;;;;;;;;;;;;;;18.68;55.37;102261.78;7394262;19;1838;-45
2024/01/09 08:45:38;;;;;;;;;;;;;;;18.75;55.37;102275.66;7395514;19;1842;-41
2024/01/09 08:48:07;;;;;;;;;;;;;;;18.80;55.08;102272.72;7396537;19;1874;-41
2024/01/09 08:50:38;;;;;;;;;;;;;;;18.64;55.54;102275.47;7380218;19;1875;-42
2024/01/09 08:53:07;;;;;;;;;;;;;;;18.58;55.98;102294.59;7396725;19;1770;-41
2024/01/09 08:55:35;;;;;;;;;;;;;;;18.47;55.85;102288.09;7395270;19;1399;-41
2024/01/09 08:58:03;;;;;;;;;;;;;;;18.53;55.95;102291.38;7394705;19;1569;-41
2024/01/09 09:00:32;;;;;;;;;;;;;;;18.47;55.86;102276.53;7391301;19;1522;-41
2024/01/09 09:03:01;;;;;;;;;;;;;;;18.48;55.75;102272.88;7396299;19;1505;-42
2024/01/09 09:05:29;;;;;;;;;;;;;;;18.41;55.64;102293.84;7396094;19;1433;-44
2024/01/09 09:08:00;;;;;;;;;;;;;;;18.52;55.63;102306.56;7396745;19;1147;-42
2024/01/09 09:10:28;;;;;;;;;;;;;;;18.65;55.51;102298.63;7393175;19;1903;-41
2024/01/09 09:12:57;;;;;;;;;;;;;;;18.70;55.14;102299.19;7394701;19;1308;-41
2024/01/09 09:15:25;;;;;;;;;;;;;;;18.74;55.11;102290.03;7394045;19;1461;-41
2024/01/09 09:17:54;;;;;;;;;;;;;;;18.72;55.15;102299.09;7395107;19;1569;-41
2024/01/09 09:20:23;;;;;;;;;;;;;;;18.80;54.88;102326.31;7394962;19;1501;-42
2024/01/09 09:22:51;;;;;;;;;;;;;;;18.66;55.50;102319.97;7394777;19;1395;-41
2024/01/09 09:25:22;;;;;;;;;;;;;;;18.47;55.67;102317.56;7391227;19;1401;-41
2024/01/09 09:27:50;;;;;;;;;;;;;;;18.30;55.96;102317.72;7394828;19;1526;-41
2024/01/09 09:30:19;;;;;;;;;;;;;;;18.04;56.24;102305.91;7393745;19;1863;-42
2024/01/09 09:32:47;;;;;;;;;;;;;;;18.14;56.09;102328.50;7395430;19;1450;-42
2024/01/09 09:35:15;;;;;;;;;;;;;;;18.29;55.85;102332.09;7395327;19;1200;-41
2024/01/09 09:37:46;;;;;;;;;;;;;;;18.28;55.60;102323.19;7394999;19;1478;-41
2024/01/09 09:40:14;;;;;;;;;;;;;;;18.37;55.57;102328.94;7395726;19;1288;-41
2024/01/09 09:42:50;;;;;;;;;;;;;;;18.45;55.44;102322.16;7393063;19;1494;-41
2024/01/09 09:45:20;;;;;;;;;;;;;;;18.40;55.32;102320.72;7395655;19;1272;-41
2024/01/09 09:47:49;;;;;;;;;;;;;;;18.37;55.58;102311.06;7393279;19;1171;-41
2024/01/09 09:50:17;;;;;;;;;;;;;;;18.12;56.08;102292.06;7375937;19;1888;-41
2024/01/09 09:52:45;;;;;;;;;;;;;;;17.85;56.84;102303.47;7393301;19;1482;-34
2024/01/09 09:55:14;;;;;;;;;;;;;;;17.56;57.47;102295.28;7392440;19;1184;-33
2024/01/09 09:57:42;;;;;;;;;;;;;;;17.87;57.15;102283.69;7392435;19;1513;-34
2024/01/09 10:00:13;;;;;;;;;;;;;;;18.26;56.35;102298.34;7390932;19;1457;-33
2024/01/09 10:02:46;;;;;;;;;;;;;;;18.37;56.08;102276.22;7391014;19;1864;-33
2024/01/09 10:05:16;;;;;;;;;;;;;;;18.24;56.03;102291.31;7391984;19;1822;-34
2024/01/09 10:07:46;;;;;;;;;;;;;;;18.19;56.29;102288.94;7393521;19;1276;-34
2024/01/09 10:10:16;;;;;;;;;;;;;;;17.99;56.72;102275.91;7391954;19;1848;-34
2024/01/09 10:12:44;;;;;;;;;;;;;;;17.74;57.12;102290.69;7394414;19;1485;-34
2024/01/09 10:15:17;;;;;;;;;;;;;;;17.60;57.75;102287.97;7393976;19;1807;-34
2024/01/09 10:17:46;;;;;;;;;;;;;;;17.92;57.19;102282.56;7393051;19;1622;-34
2024/01/09 10:20:15;;;;;;;;;;;;;;;18.07;56.79;102292.34;7393038;19;1251;-34
2024/01/09 10:22:44;;;;;;;;;;;;;;;18.18;56.70;102303.25;7393010;19;1380;-34
2024/01/09 10:25:14;;;;;;;;;;;;;;;18.11;56.83;102309.09;7392432;19;1552;-34
2024/01/09 10:27:43;;;;;;;;;;;;;;;17.88;57.43;102298.78;7392028;19;1830;-34
2024/01/09 10:30:12;;;;;;;;;;;;;;;17.63;58.51;102290.47;7391843;19;1833;-34
2024/01/09 10:32:43;;;;;;;;;;;;;;;17.59;58.69;102308.50;7392243;19;1459;-34
2024/01/09 10:35:12;;;;;;;;;;;;;;;17.86;57.96;102300.69;7393176;19;1584;-34
2024/01/09 10:37:40;;;;;;;;;;;;;;;18.17;57.06;102306.91;7392835;19;1743;-34
2024/01/09 10:40:13;;;;;;;;;;;;;;;18.19;56.86;102315.72;7392982;19;1047;-35
2024/01/09 10:42:47;;;;;;;;;;;;;;;18.08;57.31;102315.47;7391720;19;1787;-34
2024/01/09 10:45:15;;;;;;;;;;;;;;;17.81;57.90;102318.81;7393275;19;1454;-34
2024/01/09 10:47:46;;;;;;;;;;;;;;;17.59;58.95;102327.22;7391604;19;1312;-34
2024/01/09 10:50:15;;;;;;;;;;;;;;;17.55;58.65;102303.41;7374264;19;2407;-34
2024/01/09 10:52:45;;;;;;;;;;;;;;;17.78;58.14;102318.97;7391699;19;1490;-34
2024/01/09 10:55:14;;;;;;;;;;;;;;;17.92;57.62;102314.69;7390324;19;1268;-34
2024/01/09 10:57:42;;;;;;;;;;;;;;;18.03;57.40;102309.56;7390185;19;1216;-34
2024/01/09 11:00:13;;;;;;;;;;;;;;;17.91;57.66;102312.97;7390005;19;1206;-34
2024/01/09 11:02:42;;;;;;;;;;;;;;;17.68;58.21;102307.94;7391540;19;1351;-34
2024/01/09 11:05:13;;;;;;;;;;;;;;;17.71;58.12;102312.28;7390737;19;1189;-34
2024/01/09 11:07:44;;;;;;;;;;;;;;;18.20;56.77;102311.22;7393181;19;1288;-34
2024/01/09 11:10:17;;;;;;;;;;;;;;;18.45;56.32;102313.25;7389667;19;1858;-34
2024/01/09 11:12:47;;;;;;;;;;;;;;;18.53;56.24;102324.38;7391572;19;1498;-36
2024/01/09 11:15:18;;;;;;;;;;;;;;;18.39;56.56;102313.66;7391573;19;1203;-34
2024/01/09 11:17:48;;;;;;;;;;;;;;;18.36;56.85;102316.50;7392319;19;1592;-34
2024/01/09 11:20:19;;;;;;;;;;;;;;;18.38;56.29;102298.50;7391995;19;1216;-34
2024/01/09 11:22:48;;;;;;;;;;;;;;;18.49;56.18;102312.13;7390070;19;1456;-34
2024/01/09 11:25:18;;;;;;;;;;;;;;;18.59;55.54;102307.06;7389514;19;1744;-34
2024/01/09 11:27:49;;;;;;;;;;;;;;;18.62;55.59;102290.78;7390600;19;1250;-34
2024/01/09 11:30:18;;;;;;;;;;;;;;;18.61;55.42;102305.16;7390274;19;1861;-34
2024/01/09 11:32:48;;;;;;;;;;;;;;;18.40;56.24;102293.94;7391463;19;1456;-34
2024/01/09 11:35:20;;;;;;;;;;;;;;;18.16;56.71;102289.09;7391942;19;1549;-34
2024/01/09 11:37:50;;;;;;;;;;;;;;;18.10;57.34;102294.84;7390119;19;1398;-35
2024/01/09 11:40:19;;;;;;;;;;;;;;;18.15;57.38;102316.00;7391554;19;1240;-35
2024/01/09 11:42:48;;;;;;;;;;;;;;;18.25;56.95;102296.59;7390377;19;1767;-34
2024/01/09 11:45:22;;;;;;;;;;;;;;;18.39;56.81;102300.25;7389693;19;1527;-34
2024/01/09 11:47:50;;;;;;;;;;;;;;;18.58;56.02;102306.19;7390531;19;1720;-34
2024/01/09 11:50:21;;;;;;;;;;;;;;;18.59;55.75;102291.84;7375832;19;1882;-34
2024/01/09 11:52:51;;;;;;;;;;;;;;;18.43;55.92;102307.16;7389909;19;1198;-34
2024/01/09 11:55:19;;;;;;;;;;;;;;;18.55;55.64;102306.38;7386638;19;1747;-34
2024/01/09 11:57:47;;;;;;;;;;;;;;;18.49;55.88;102318.34;7389594;19;2306;-34
2024/01/09 12:00:16;;;;;;;;;;;;;;;18.42;56.38;102317.00;7389008;19;1383;-34
2024/01/09 12:02:44;;;;;;;;;;;;;;;18.35;56.56;102330.84;7389804;19;1568;-34
2024/01/09 12:05:13;;;;;;;;;;;;;;;17.84;56.06;102222.31;7389165;19;1587;-34
2024/01/09 12:07:44;;;;;;;;;;;;;;;18.76;55.50;102335.47;7391528;19;1560;-34
2024/01/09 12:10:15;;;;;;;;;;;;;;;18.96;55.07;102340.50;7397560;19;1849;-34
2024/01/09 12:12:43;;;;;;;;;;;;;;;18.96;54.88;102343.16;7393469;19;1850;-34
2024/01/09 12:15:11;;;;;;;;;;;;;;;19.03;54.35;102355.22;7397741;19;1931;-34
2024/01/09 12:17:44;;;;;;;;;;;;;;;19.13;54.06;102343.91;7398579;19;1214;-34
2024/01/09 12:20:13;;;;;;;;;;;;;;;18.92;54.76;102357.72;7397635;19;1462;-34
2024/01/09 12:22:44;;;;;;;;;;;;;;;18.76;55.45;102367.63;7397681;19;1728;-34
2024/01/09 12:25:12;;;;;;;;;;;;;;;18.79;55.50;102354.06;7397328;19;1532;-34
2024/01/09 12:27:42;;;;;;;;;;;;;;;18.91;55.27;102360.50;7395720;19;1531;-34
2024/01/09 12:30:13;;;;;;;;;;;;;;;19.09;54.92;102353.97;7395627;19;1861;-34
2024/01/09 12:32:41;;;;;;;;;;;;;;;19.18;54.50;102366.81;7392078;19;1446;-34
2024/01/09 12:35:09;;;;;;;;;;;;;;;19.27;54.28;102370.69;7396042;19;1232;-35
2024/01/09 12:37:38;;;;;;;;;;;;;;;19.23;54.19;102374.53;7396634;19;1222;-34
2024/01/09 12:40:10;;;;;;;;;;;;;;;19.02;54.54;102388.38;7396063;19;1249;-35
2024/01/09 12:42:38;;;;;;;;;;;;;;;19.08;53.89;102385.28;7395695;19;1420;-35
2024/01/09 12:45:07;;;;;;;;;;;;;;;19.02;54.26;102388.38;7394630;19;1838;-34
2024/01/09 12:47:35;;;;;;;;;;;;;;;18.97;54.36;102416.41;7395900;19;1483;-34
2024/01/09 12:50:04;;;;;;;;;;;;;;;18.86;54.67;102400.97;7379726;19;1876;-34
2024/01/09 12:52:34;;;;;;;;;;;;;;;18.96;55.26;102403.94;7395876;19;1501;-34
2024/01/09 12:55:06;;;;;;;;;;;;;;;19.21;55.06;102411.31;7392626;19;1798;-34
2024/01/09 12:57:37;;;;;;;;;;;;;;;19.04;55.16;102399.84;7394691;19;1670;-34